sensor_id;sensor_type;location;lat;lon;timestamp;temperature;humidity
34640;DHT22;22600;48.186;11.526;2023-03-21T00:00:22;22.40;48.90
34640;DHT22;22600;48.186;11.526;2023-03-21T00:02:48;22.40;48.90
34640;DHT22;22600;48.186;11.526;2023-03-21T00:05:13;22.40;48.90
34640;DHT22;22600;48.186;11.526;2023-03-21T00:07:39;22.40;48.90
34640;DHT22;22600;48.186;11.526;2023-03-21T00:10:05;22.40;49.10
34640;DHT22;22600;48.186;11.526;2023-03-21T00:12:30;22.40;49.10
34640;DHT22;22600;48.186;11.526;2023-03-21T00:14:57;22.40;49.00
34640;DHT22;22600;48.186;11.526;2023-03-21T00:17:29;22.40;49.10
34640;DHT22;22600;48.186;11.526;2023-03-21T00:19:57;22.40;49.10
34640;DHT22;22600;48.186;11.526;2023-03-21T00:22:22;22.40;49.10
34640;DHT22;22600;48.186;11.526;2023-03-21T00:24:48;22.40;49.10
34640;DHT22;22600;48.186;11.526;2023-03-21T00:27:13;22.40;49.20
34640;DHT22;22600;48.186;11.526;2023-03-21T00:29:39;22.40;49.20
34640;DHT22;22600;48.186;11.526;2023-03-21T00:32:04;22.40;49.30
34640;DHT22;22600;48.186;11.526;2023-03-21T00:34:30;22.40;49.90
34640;DHT22;22600;48.186;11.526;2023-03-21T00:36:57;22.50;49.30
34640;DHT22;22600;48.186;11.526;2023-03-21T00:39:23;22.40;49.30
34640;DHT22;22600;48.186;11.526;2023-03-21T00:41:48;22.40;49.30
34640;DHT22;22600;48.186;11.526;2023-03-21T00:44:14;22.50;49.40
34640;DHT22;22600;48.186;11.526;2023-03-21T00:46:39;22.40;49.40
34640;DHT22;22600;48.186;11.526;2023-03-21T00:49:05;22.50;49.50
34640;DHT22;22600;48.186;11.526;2023-03-21T00:51:30;22.40;49.40
34640;DHT22;22600;48.186;11.526;2023-03-21T00:53:58;22.40;49.50
34640;DHT22;22600;48.186;11.526;2023-03-21T00:56:23;22.30;49.50
34640;DHT22;22600;48.186;11.526;2023-03-21T00:58:49;22.40;49.50
34640;DHT22;22600;48.186;11.526;2023-03-21T01:01:15;22.40;49.60
34640;DHT22;22600;48.186;11.526;2023-03-21T01:03:41;22.40;49.50
34640;DHT22;22600;48.186;11.526;2023-03-21T01:06:15;23.50;50.10
34640;DHT22;22600;48.186;11.526;2023-03-21T01:08:43;22.40;49.60
34640;DHT22;22600;48.186;11.526;2023-03-21T01:11:10;22.40;49.60
34640;DHT22;22600;48.186;11.526;2023-03-21T01:13:36;22.40;49.60
34640;DHT22;22600;48.186;11.526;2023-03-21T01:16:02;22.40;49.60
34640;DHT22;22600;48.186;11.526;2023-03-21T01:18:29;22.50;49.70
34640;DHT22;22600;48.186;11.526;2023-03-21T01:20:56;22.50;49.70
34640;DHT22;22600;48.186;11.526;2023-03-21T01:23:22;23.90;50.40
34640;DHT22;22600;48.186;11.526;2023-03-21T01:25:48;22.50;49.80
34640;DHT22;22600;48.186;11.526;2023-03-21T01:28:13;22.40;49.80
34640;DHT22;22600;48.186;11.526;2023-03-21T01:30:43;22.40;49.70
34640;DHT22;22600;48.186;11.526;2023-03-21T01:33:08;22.40;49.80
34640;DHT22;22600;48.186;11.526;2023-03-21T01:35:35;22.40;49.80
34640;DHT22;22600;48.186;11.526;2023-03-21T01:38:01;22.40;49.80
34640;DHT22;22600;48.186;11.526;2023-03-21T01:40:26;22.40;49.80
34640;DHT22;22600;48.186;11.526;2023-03-21T01:42:52;22.50;49.90
34640;DHT22;22600;48.186;11.526;2023-03-21T01:48:02;22.40;49.90
34640;DHT22;22600;48.186;11.526;2023-03-21T01:50:28;22.50;49.90
34640;DHT22;22600;48.186;11.526;2023-03-21T01:52:53;22.40;49.90
34640;DHT22;22600;48.186;11.526;2023-03-21T01:55:19;22.40;50.00
34640;DHT22;22600;48.186;11.526;2023-03-21T01:57:45;25.50;51.60
34640;DHT22;22600;48.186;11.526;2023-03-21T02:00:13;22.40;50.00
34640;DHT22;22600;48.186;11.526;2023-03-21T02:02:41;22.40;50.10
34640;DHT22;22600;48.186;11.526;2023-03-21T02:05:58;21.70;49.70
34640;DHT22;22600;48.186;11.526;2023-03-21T02:08:03;22.50;50.10
34640;DHT22;22600;48.186;11.526;2023-03-21T02:10:29;22.40;50.10
34640;DHT22;22600;48.186;11.526;2023-03-21T02:12:56;23.80;50.80
34640;DHT22;22600;48.186;11.526;2023-03-21T02:15:23;22.40;50.10
34640;DHT22;22600;48.186;11.526;2023-03-21T02:18:52;22.50;50.10
34640;DHT22;22600;48.186;11.526;2023-03-21T02:23:43;22.40;50.10
34640;DHT22;22600;48.186;11.526;2023-03-21T02:28:49;22.50;50.20
34640;DHT22;22600;48.186;11.526;2023-03-21T02:33:51;22.50;50.30
34640;DHT22;22600;48.186;11.526;2023-03-21T02:36:27;22.40;50.30
34640;DHT22;22600;48.186;11.526;2023-03-21T02:39:08;22.40;50.20
34640;DHT22;22600;48.186;11.526;2023-03-21T02:44:09;22.50;50.30
34640;DHT22;22600;48.186;11.526;2023-03-21T02:46:42;22.50;50.30
34640;DHT22;22600;48.186;11.526;2023-03-21T02:49:17;22.40;50.30
34640;DHT22;22600;48.186;11.526;2023-03-21T02:51:45;22.50;50.30
34640;DHT22;22600;48.186;11.526;2023-03-21T02:54:12;22.50;50.30
34640;DHT22;22600;48.186;11.526;2023-03-21T02:56:39;22.40;50.30
34640;DHT22;22600;48.186;11.526;2023-03-21T02:59:05;22.50;50.40
34640;DHT22;22600;48.186;11.526;2023-03-21T03:01:31;26.40;52.60
34640;DHT22;22600;48.186;11.526;2023-03-21T03:03:57;22.50;50.40
34640;DHT22;22600;48.186;11.526;2023-03-21T03:11:35;22.50;50.40
34640;DHT22;22600;48.186;11.526;2023-03-21T03:14:20;22.50;50.50
34640;DHT22;22600;48.186;11.526;2023-03-21T03:20:07;22.40;50.40
34640;DHT22;22600;48.186;11.526;2023-03-21T03:22:44;22.50;50.50
34640;DHT22;22600;48.186;11.526;2023-03-21T03:25:12;22.40;50.50
34640;DHT22;22600;48.186;11.526;2023-03-21T03:27:40;22.40;50.50
34640;DHT22;22600;48.186;11.526;2023-03-21T03:30:07;22.50;50.50
34640;DHT22;22600;48.186;11.526;2023-03-21T03:32:35;22.40;50.50
34640;DHT22;22600;48.186;11.526;2023-03-21T03:35:01;22.50;50.50
34640;DHT22;22600;48.186;11.526;2023-03-21T03:37:29;22.50;50.60
34640;DHT22;22600;48.186;11.526;2023-03-21T03:45:06;22.50;50.60
34640;DHT22;22600;48.186;11.526;2023-03-21T03:47:37;22.40;50.50
34640;DHT22;22600;48.186;11.526;2023-03-21T03:52:51;22.50;50.60
34640;DHT22;22600;48.186;11.526;2023-03-21T03:55:17;22.50;50.60
34640;DHT22;22600;48.186;11.526;2023-03-21T03:57:46;22.50;50.70
34640;DHT22;22600;48.186;11.526;2023-03-21T04:00:12;22.50;50.60
34640;DHT22;22600;48.186;11.526;2023-03-21T04:02:37;22.50;50.70
34640;DHT22;22600;48.186;11.526;2023-03-21T04:05:03;22.40;50.60
34640;DHT22;22600;48.186;11.526;2023-03-21T04:07:29;22.50;50.70
34640;DHT22;22600;48.186;11.526;2023-03-21T04:09:55;22.50;50.70
34640;DHT22;22600;48.186;11.526;2023-03-21T04:12:22;21.50;50.20
34640;DHT22;22600;48.186;11.526;2023-03-21T04:14:47;22.40;50.70
34640;DHT22;22600;48.186;11.526;2023-03-21T04:17:13;22.50;50.70
34640;DHT22;22600;48.186;11.526;2023-03-21T04:19:38;22.50;50.80
34640;DHT22;22600;48.186;11.526;2023-03-21T04:22:04;20.20;49.70
34640;DHT22;22600;48.186;11.526;2023-03-21T04:24:30;22.50;50.80
34640;DHT22;22600;48.186;11.526;2023-03-21T04:26:58;22.50;50.80
34640;DHT22;22600;48.186;11.526;2023-03-21T04:29:24;22.50;50.80
34640;DHT22;22600;48.186;11.526;2023-03-21T04:31:50;22.50;50.80
34640;DHT22;22600;48.186;11.526;2023-03-21T04:34:15;22.50;50.80
34640;DHT22;22600;48.186;11.526;2023-03-21T04:36:41;24.40;51.80
34640;DHT22;22600;48.186;11.526;2023-03-21T04:39:08;22.50;50.80
34640;DHT22;22600;48.186;11.526;2023-03-21T04:41:37;22.50;50.90
34640;DHT22;22600;48.186;11.526;2023-03-21T04:44:03;22.50;50.90
34640;DHT22;22600;48.186;11.526;2023-03-21T04:46:28;22.50;50.80
34640;DHT22;22600;48.186;11.526;2023-03-21T04:48:54;22.50;50.80
34640;DHT22;22600;48.186;11.526;2023-03-21T04:51:19;22.50;50.90
34640;DHT22;22600;48.186;11.526;2023-03-21T04:53:45;23.40;51.30
34640;DHT22;22600;48.186;11.526;2023-03-21T04:56:14;22.50;50.90
34640;DHT22;22600;48.186;11.526;2023-03-21T04:58:40;22.50;50.90
34640;DHT22;22600;48.186;11.526;2023-03-21T05:01:06;22.50;51.00
34640;DHT22;22600;48.186;11.526;2023-03-21T05:03:31;22.50;50.90
34640;DHT22;22600;48.186;11.526;2023-03-21T05:05:59;22.50;50.90
34640;DHT22;22600;48.186;11.526;2023-03-21T05:08:25;22.50;50.90
34640;DHT22;22600;48.186;11.526;2023-03-21T05:10:51;22.50;51.00
34640;DHT22;22600;48.186;11.526;2023-03-21T05:13:16;22.50;51.00
34640;DHT22;22600;48.186;11.526;2023-03-21T05:15:42;22.50;51.00
34640;DHT22;22600;48.186;11.526;2023-03-21T05:18:07;22.50;51.00
34640;DHT22;22600;48.186;11.526;2023-03-21T05:20:36;22.50;51.00
34640;DHT22;22600;48.186;11.526;2023-03-21T05:23:02;22.50;51.00
34640;DHT22;22600;48.186;11.526;2023-03-21T05:25:27;22.50;51.20
34640;DHT22;22600;48.186;11.526;2023-03-21T05:28:00;22.40;51.10
34640;DHT22;22600;48.186;11.526;2023-03-21T05:30:26;22.50;51.00
34640;DHT22;22600;48.186;11.526;2023-03-21T05:32:51;22.50;50.80
34640;DHT22;22600;48.186;11.526;2023-03-21T05:35:17;22.40;50.40
34640;DHT22;22600;48.186;11.526;2023-03-21T05:37:42;22.40;50.40
34640;DHT22;22600;48.186;11.526;2023-03-21T05:40:08;22.50;50.40
34640;DHT22;22600;48.186;11.526;2023-03-21T05:42:34;22.50;50.40
34640;DHT22;22600;48.186;11.526;2023-03-21T05:44:59;22.40;50.40
34640;DHT22;22600;48.186;11.526;2023-03-21T05:47:25;22.50;50.50
34640;DHT22;22600;48.186;11.526;2023-03-21T05:49:50;22.40;50.40
34640;DHT22;22600;48.186;11.526;2023-03-21T05:52:16;22.40;50.50
34640;DHT22;22600;48.186;11.526;2023-03-21T05:54:42;22.40;50.50
34640;DHT22;22600;48.186;11.526;2023-03-21T05:57:07;22.40;50.80
34640;DHT22;22600;48.186;11.526;2023-03-21T05:59:33;22.40;50.60
34640;DHT22;22600;48.186;11.526;2023-03-21T06:01:58;22.40;50.60
34640;DHT22;22600;48.186;11.526;2023-03-21T06:04:24;22.40;50.60
34640;DHT22;22600;48.186;11.526;2023-03-21T06:06:49;22.40;50.60
34640;DHT22;22600;48.186;11.526;2023-03-21T06:09:18;22.40;50.60
34640;DHT22;22600;48.186;11.526;2023-03-21T06:11:45;22.50;50.70
34640;DHT22;22600;48.186;11.526;2023-03-21T06:14:11;22.40;50.70
34640;DHT22;22600;48.186;11.526;2023-03-21T06:16:36;22.40;50.70
34640;DHT22;22600;48.186;11.526;2023-03-21T06:19:02;22.40;50.70
34640;DHT22;22600;48.186;11.526;2023-03-21T06:21:27;22.40;50.70
34640;DHT22;22600;48.186;11.526;2023-03-21T06:23:52;22.50;50.80
34640;DHT22;22600;48.186;11.526;2023-03-21T06:26:18;22.40;50.80
34640;DHT22;22600;48.186;11.526;2023-03-21T06:28:49;22.40;50.70
34640;DHT22;22600;48.186;11.526;2023-03-21T06:31:15;22.50;50.80
34640;DHT22;22600;48.186;11.526;2023-03-21T06:33:41;22.40;50.80
34640;DHT22;22600;48.186;11.526;2023-03-21T06:36:07;22.40;50.80
34640;DHT22;22600;48.186;11.526;2023-03-21T06:38:32;22.50;50.90
34640;DHT22;22600;48.186;11.526;2023-03-21T06:40:58;22.40;50.80
34640;DHT22;22600;48.186;11.526;2023-03-21T06:43:23;22.40;50.80
34640;DHT22;22600;48.186;11.526;2023-03-21T06:45:49;22.40;50.80
34640;DHT22;22600;48.186;11.526;2023-03-21T06:48:14;22.40;50.80
34640;DHT22;22600;48.186;11.526;2023-03-21T06:50:40;22.50;50.90
34640;DHT22;22600;48.186;11.526;2023-03-21T06:53:05;22.40;50.80
34640;DHT22;22600;48.186;11.526;2023-03-21T06:55:31;22.50;51.00
34640;DHT22;22600;48.186;11.526;2023-03-21T06:57:56;22.50;50.90
34640;DHT22;22600;48.186;11.526;2023-03-21T07:00:22;22.50;50.90
34640;DHT22;22600;48.186;11.526;2023-03-21T07:02:48;22.50;50.90
34640;DHT22;22600;48.186;11.526;2023-03-21T07:05:14;22.50;50.90
34640;DHT22;22600;48.186;11.526;2023-03-21T07:07:39;22.40;50.90
34640;DHT22;22600;48.186;11.526;2023-03-21T07:10:05;22.40;50.90
34640;DHT22;22600;48.186;11.526;2023-03-21T07:12:31;22.50;50.90
34640;DHT22;22600;48.186;11.526;2023-03-21T07:14:58;22.50;51.00
34640;DHT22;22600;48.186;11.526;2023-03-21T07:17:25;22.50;51.00
34640;DHT22;22600;48.186;11.526;2023-03-21T07:19:50;22.50;51.00
34640;DHT22;22600;48.186;11.526;2023-03-21T07:22:16;22.40;50.90
34640;DHT22;22600;48.186;11.526;2023-03-21T07:24:41;22.50;51.00
34640;DHT22;22600;48.186;11.526;2023-03-21T07:27:07;22.40;51.00
34640;DHT22;22600;48.186;11.526;2023-03-21T07:29:32;22.50;51.00
34640;DHT22;22600;48.186;11.526;2023-03-21T07:31:58;22.40;50.90
34640;DHT22;22600;48.186;11.526;2023-03-21T07:34:23;22.50;51.00
34640;DHT22;22600;48.186;11.526;2023-03-21T07:36:49;22.50;51.00
34640;DHT22;22600;48.186;11.526;2023-03-21T07:39:15;22.50;51.00
34640;DHT22;22600;48.186;11.526;2023-03-21T07:41:41;22.50;51.00
34640;DHT22;22600;48.186;11.526;2023-03-21T07:44:07;22.50;51.00
34640;DHT22;22600;48.186;11.526;2023-03-21T07:46:32;22.50;51.00
34640;DHT22;22600;48.186;11.526;2023-03-21T07:48:58;22.50;51.00
34640;DHT22;22600;48.186;11.526;2023-03-21T07:51:24;22.50;51.00
34640;DHT22;22600;48.186;11.526;2023-03-21T07:53:49;22.50;51.00
34640;DHT22;22600;48.186;11.526;2023-03-21T07:56:14;22.50;51.00
34640;DHT22;22600;48.186;11.526;2023-03-21T07:58:40;22.50;51.00
34640;DHT22;22600;48.186;11.526;2023-03-21T08:01:05;22.50;51.00
34640;DHT22;22600;48.186;11.526;2023-03-21T08:03:31;22.50;51.10
34640;DHT22;22600;48.186;11.526;2023-03-21T08:05:58;22.50;51.10
34640;DHT22;22600;48.186;11.526;2023-03-21T08:08:24;22.50;51.00
34640;DHT22;22600;48.186;11.526;2023-03-21T08:10:49;22.50;51.10
34640;DHT22;22600;48.186;11.526;2023-03-21T08:13:15;22.50;51.10
34640;DHT22;22600;48.186;11.526;2023-03-21T08:15:40;22.50;51.10
34640;DHT22;22600;48.186;11.526;2023-03-21T08:18:06;22.50;51.10
34640;DHT22;22600;48.186;11.526;2023-03-21T08:20:32;22.50;51.00
34640;DHT22;22600;48.186;11.526;2023-03-21T08:22:57;22.50;51.10
34640;DHT22;22600;48.186;11.526;2023-03-21T08:25:23;22.50;51.10
34640;DHT22;22600;48.186;11.526;2023-03-21T08:27:49;22.50;51.10
34640;DHT22;22600;48.186;11.526;2023-03-21T08:30:16;22.50;51.10
34640;DHT22;22600;48.186;11.526;2023-03-21T08:32:42;22.50;51.10
34640;DHT22;22600;48.186;11.526;2023-03-21T08:35:08;22.50;51.10
34640;DHT22;22600;48.186;11.526;2023-03-21T08:37:35;22.50;51.10
34640;DHT22;22600;48.186;11.526;2023-03-21T08:40:01;22.60;51.20
34640;DHT22;22600;48.186;11.526;2023-03-21T08:42:28;22.50;51.10
34640;DHT22;22600;48.186;11.526;2023-03-21T08:44:53;22.50;51.10
34640;DHT22;22600;48.186;11.526;2023-03-21T08:47:18;22.50;51.10
34640;DHT22;22600;48.186;11.526;2023-03-21T08:49:44;22.50;51.10
34640;DHT22;22600;48.186;11.526;2023-03-21T08:52:12;22.50;51.10
34640;DHT22;22600;48.186;11.526;2023-03-21T08:54:37;22.40;51.10
34640;DHT22;22600;48.186;11.526;2023-03-21T08:57:05;22.50;51.10
34640;DHT22;22600;48.186;11.526;2023-03-21T08:59:30;22.50;51.20
34640;DHT22;22600;48.186;11.526;2023-03-21T09:01:56;22.50;51.20
34640;DHT22;22600;48.186;11.526;2023-03-21T09:04:21;22.50;51.20
34640;DHT22;22600;48.186;11.526;2023-03-21T09:06:50;22.50;51.10
34640;DHT22;22600;48.186;11.526;2023-03-21T09:09:16;23.70;51.70
34640;DHT22;22600;48.186;11.526;2023-03-21T09:11:42;18.70;49.30
34640;DHT22;22600;48.186;11.526;2023-03-21T09:14:07;22.60;51.20
34640;DHT22;22600;48.186;11.526;2023-03-21T09:16:33;22.50;51.20
34640;DHT22;22600;48.186;11.526;2023-03-21T09:18:59;22.50;51.10
34640;DHT22;22600;48.186;11.526;2023-03-21T09:21:25;22.50;51.20
34640;DHT22;22600;48.186;11.526;2023-03-21T09:23:51;22.50;51.20
34640;DHT22;22600;48.186;11.526;2023-03-21T09:26:19;22.50;51.20
34640;DHT22;22600;48.186;11.526;2023-03-21T09:28:45;22.50;51.20
34640;DHT22;22600;48.186;11.526;2023-03-21T09:31:11;22.50;51.20
34640;DHT22;22600;48.186;11.526;2023-03-21T09:33:38;22.50;51.20
34640;DHT22;22600;48.186;11.526;2023-03-21T09:36:10;22.50;51.20
34640;DHT22;22600;48.186;11.526;2023-03-21T09:38:41;22.50;51.20
34640;DHT22;22600;48.186;11.526;2023-03-21T09:46:34;22.50;51.20
34640;DHT22;22600;48.186;11.526;2023-03-21T09:49:01;22.50;51.20
34640;DHT22;22600;48.186;11.526;2023-03-21T09:51:33;22.50;51.20
34640;DHT22;22600;48.186;11.526;2023-03-21T09:54:02;22.50;51.20
34640;DHT22;22600;48.186;11.526;2023-03-21T09:56:29;22.50;51.20
34640;DHT22;22600;48.186;11.526;2023-03-21T09:58:55;22.50;51.20
34640;DHT22;22600;48.186;11.526;2023-03-21T10:01:24;22.50;51.20
34640;DHT22;22600;48.186;11.526;2023-03-21T10:03:54;22.50;51.10
34640;DHT22;22600;48.186;11.526;2023-03-21T10:06:21;22.50;51.20
34640;DHT22;22600;48.186;11.526;2023-03-21T10:08:53;22.50;51.20
34640;DHT22;22600;48.186;11.526;2023-03-21T10:11:24;22.50;51.20
34640;DHT22;22600;48.186;11.526;2023-03-21T10:14:02;22.50;51.20
34640;DHT22;22600;48.186;11.526;2023-03-21T10:16:32;22.60;51.20
34640;DHT22;22600;48.186;11.526;2023-03-21T10:19:03;22.60;51.20
34640;DHT22;22600;48.186;11.526;2023-03-21T10:21:32;22.60;51.20
34640;DHT22;22600;48.186;11.526;2023-03-21T10:23:57;22.60;51.20
34640;DHT22;22600;48.186;11.526;2023-03-21T10:26:24;22.60;51.20
34640;DHT22;22600;48.186;11.526;2023-03-21T10:28:52;22.60;51.20
34640;DHT22;22600;48.186;11.526;2023-03-21T10:31:20;22.60;51.20
34640;DHT22;22600;48.186;11.526;2023-03-21T10:33:49;22.60;51.20
34640;DHT22;22600;48.186;11.526;2023-03-21T10:36:16;22.60;51.30
34640;DHT22;22600;48.186;11.526;2023-03-21T10:41:36;22.60;51.30
34640;DHT22;22600;48.186;11.526;2023-03-21T10:44:09;22.60;51.30
34640;DHT22;22600;48.186;11.526;2023-03-21T10:46:36;22.60;51.30
34640;DHT22;22600;48.186;11.526;2023-03-21T10:49:01;22.60;51.30
34640;DHT22;22600;48.186;11.526;2023-03-21T10:51:30;22.60;51.30
34640;DHT22;22600;48.186;11.526;2023-03-21T10:54:07;22.60;51.30
34640;DHT22;22600;48.186;11.526;2023-03-21T10:56:37;22.60;51.30
34640;DHT22;22600;48.186;11.526;2023-03-21T10:59:03;22.60;51.20
34640;DHT22;22600;48.186;11.526;2023-03-21T11:01:40;22.60;51.30
34640;DHT22;22600;48.186;11.526;2023-03-21T11:04:13;22.60;51.30
34640;DHT22;22600;48.186;11.526;2023-03-21T11:06:41;22.60;51.30
34640;DHT22;22600;48.186;11.526;2023-03-21T11:09:08;22.60;51.30
34640;DHT22;22600;48.186;11.526;2023-03-21T11:11:39;22.60;51.30
34640;DHT22;22600;48.186;11.526;2023-03-21T11:14:06;22.60;51.90
34640;DHT22;22600;48.186;11.526;2023-03-21T11:16:39;22.60;51.30
34640;DHT22;22600;48.186;11.526;2023-03-21T11:19:15;22.70;51.30
34640;DHT22;22600;48.186;11.526;2023-03-21T11:21:40;22.60;51.30
34640;DHT22;22600;48.186;11.526;2023-03-21T11:24:08;22.70;51.30
34640;DHT22;22600;48.186;11.526;2023-03-21T11:26:36;22.70;51.30
34640;DHT22;22600;48.186;11.526;2023-03-21T11:29:08;22.70;51.40
34640;DHT22;22600;48.186;11.526;2023-03-21T11:31:39;22.70;51.40
34640;DHT22;22600;48.186;11.526;2023-03-21T11:34:05;22.70;51.40
34640;DHT22;22600;48.186;11.526;2023-03-21T11:36:32;22.70;51.40
34640;DHT22;22600;48.186;11.526;2023-03-21T11:39:01;22.70;51.40
34640;DHT22;22600;48.186;11.526;2023-03-21T11:41:30;22.70;51.40
34640;DHT22;22600;48.186;11.526;2023-03-21T11:43:56;22.70;51.40
34640;DHT22;22600;48.186;11.526;2023-03-21T11:46:23;20.90;50.60
34640;DHT22;22600;48.186;11.526;2023-03-21T11:48:48;22.70;51.50
34640;DHT22;22600;48.186;11.526;2023-03-21T11:51:25;22.70;51.50
34640;DHT22;22600;48.186;11.526;2023-03-21T11:56:30;22.70;51.50
34640;DHT22;22600;48.186;11.526;2023-03-21T11:59:02;22.70;51.50
34640;DHT22;22600;48.186;11.526;2023-03-21T12:06:50;22.80;51.60
34640;DHT22;22600;48.186;11.526;2023-03-21T12:09:25;22.80;51.60
34640;DHT22;22600;48.186;11.526;2023-03-21T12:11:56;22.80;51.60
34640;DHT22;22600;48.186;11.526;2023-03-21T12:16:53;22.80;51.60
34640;DHT22;22600;48.186;11.526;2023-03-21T12:32:41;22.80;51.60
34640;DHT22;22600;48.186;11.526;2023-03-21T12:35:11;22.80;51.60
34640;DHT22;22600;48.186;11.526;2023-03-21T12:45:10;22.90;51.80
34640;DHT22;22600;48.186;11.526;2023-03-21T12:47:36;22.90;51.80
34640;DHT22;22600;48.186;11.526;2023-03-21T12:50:12;22.80;51.80
34640;DHT22;22600;48.186;11.526;2023-03-21T12:52:41;22.90;51.80
34640;DHT22;22600;48.186;11.526;2023-03-21T12:55:19;22.90;51.80
34640;DHT22;22600;48.186;11.526;2023-03-21T12:57:51;22.90;51.80
34640;DHT22;22600;48.186;11.526;2023-03-21T13:02:46;22.90;51.40
34640;DHT22;22600;48.186;11.526;2023-03-21T13:07:42;22.80;50.70
34640;DHT22;22600;48.186;11.526;2023-03-21T13:10:12;22.80;50.30
34640;DHT22;22600;48.186;11.526;2023-03-21T13:12:47;22.80;50.30
34640;DHT22;22600;48.186;11.526;2023-03-21T13:15:23;22.80;50.10
34640;DHT22;22600;48.186;11.526;2023-03-21T13:18:02;22.80;50.00
34640;DHT22;22600;48.186;11.526;2023-03-21T13:20:34;22.80;50.10
34640;DHT22;22600;48.186;11.526;2023-03-21T13:23:03;22.80;50.00
34640;DHT22;22600;48.186;11.526;2023-03-21T13:25:30;22.80;50.10
34640;DHT22;22600;48.186;11.526;2023-03-21T13:28:01;22.80;50.10
34640;DHT22;22600;48.186;11.526;2023-03-21T13:30:28;22.80;49.80
34640;DHT22;22600;48.186;11.526;2023-03-21T13:35:33;22.70;49.40
34640;DHT22;22600;48.186;11.526;2023-03-21T13:40:28;22.70;49.00
34640;DHT22;22600;48.186;11.526;2023-03-21T13:42:59;22.70;48.40
34640;DHT22;22600;48.186;11.526;2023-03-21T13:45:32;22.70;47.80
34640;DHT22;22600;48.186;11.526;2023-03-21T13:48:05;22.70;47.40
34640;DHT22;22600;48.186;11.526;2023-03-21T13:50:50;22.70;47.10
34640;DHT22;22600;48.186;11.526;2023-03-21T13:53:20;22.70;47.20
34640;DHT22;22600;48.186;11.526;2023-03-21T13:55:47;22.70;47.20
34640;DHT22;22600;48.186;11.526;2023-03-21T14:03:43;22.70;47.60
34640;DHT22;22600;48.186;11.526;2023-03-21T14:06:08;22.80;47.80
34640;DHT22;22600;48.186;11.526;2023-03-21T14:08:35;22.80;48.00
34640;DHT22;22600;48.186;11.526;2023-03-21T14:11:02;22.80;48.10
34640;DHT22;22600;48.186;11.526;2023-03-21T14:13:29;22.80;48.20
34640;DHT22;22600;48.186;11.526;2023-03-21T14:16:06;22.80;48.30
34640;DHT22;22600;48.186;11.526;2023-03-21T14:18:38;22.80;48.40
34640;DHT22;22600;48.186;11.526;2023-03-21T14:21:05;22.80;48.50
34640;DHT22;22600;48.186;11.526;2023-03-21T14:23:30;22.80;48.60
34640;DHT22;22600;48.186;11.526;2023-03-21T14:25:56;22.80;48.70
34640;DHT22;22600;48.186;11.526;2023-03-21T14:28:22;22.90;48.80
34640;DHT22;22600;48.186;11.526;2023-03-21T14:30:49;22.80;48.90
34640;DHT22;22600;48.186;11.526;2023-03-21T14:36:02;22.90;49.10
34640;DHT22;22600;48.186;11.526;2023-03-21T14:38:35;22.90;49.10
34640;DHT22;22600;48.186;11.526;2023-03-21T14:41:01;22.90;49.20
34640;DHT22;22600;48.186;11.526;2023-03-21T14:43:26;22.90;49.30
34640;DHT22;22600;48.186;11.526;2023-03-21T14:45:53;22.90;49.30
34640;DHT22;22600;48.186;11.526;2023-03-21T14:48:19;22.90;49.40
34640;DHT22;22600;48.186;11.526;2023-03-21T14:50:49;22.90;49.40
34640;DHT22;22600;48.186;11.526;2023-03-21T14:53:17;22.90;49.50
34640;DHT22;22600;48.186;11.526;2023-03-21T14:55:45;22.90;49.50
34640;DHT22;22600;48.186;11.526;2023-03-21T14:58:11;22.90;49.50
34640;DHT22;22600;48.186;11.526;2023-03-21T15:00:37;22.90;49.60
34640;DHT22;22600;48.186;11.526;2023-03-21T15:03:03;22.90;49.60
34640;DHT22;22600;48.186;11.526;2023-03-21T15:05:32;22.90;49.70
34640;DHT22;22600;48.186;11.526;2023-03-21T15:08:00;22.90;49.70
34640;DHT22;22600;48.186;11.526;2023-03-21T15:10:26;22.90;49.70
34640;DHT22;22600;48.186;11.526;2023-03-21T15:12:54;22.90;49.70
34640;DHT22;22600;48.186;11.526;2023-03-21T15:15:20;22.90;49.80
34640;DHT22;22600;48.186;11.526;2023-03-21T15:17:47;22.80;49.80
34640;DHT22;22600;48.186;11.526;2023-03-21T15:20:14;22.90;49.90
34640;DHT22;22600;48.186;11.526;2023-03-21T15:22:42;22.90;50.00
34640;DHT22;22600;48.186;11.526;2023-03-21T15:25:11;22.90;50.10
34640;DHT22;22600;48.186;11.526;2023-03-21T15:27:39;22.90;50.10
34640;DHT22;22600;48.186;11.526;2023-03-21T15:30:05;22.90;50.10
34640;DHT22;22600;48.186;11.526;2023-03-21T15:32:31;22.90;50.00
34640;DHT22;22600;48.186;11.526;2023-03-21T15:35:07;22.90;50.00
34640;DHT22;22600;48.186;11.526;2023-03-21T15:37:37;22.90;50.00
34640;DHT22;22600;48.186;11.526;2023-03-21T15:40:15;22.90;49.90
34640;DHT22;22600;48.186;11.526;2023-03-21T15:42:42;22.90;49.80
34640;DHT22;22600;48.186;11.526;2023-03-21T15:47:50;22.90;49.90
34640;DHT22;22600;48.186;11.526;2023-03-21T15:52:48;22.90;49.90
34640;DHT22;22600;48.186;11.526;2023-03-21T15:55:18;22.90;49.90
34640;DHT22;22600;48.186;11.526;2023-03-21T15:57:46;22.90;50.00
34640;DHT22;22600;48.186;11.526;2023-03-21T16:00:19;22.80;50.60
34640;DHT22;22600;48.186;11.526;2023-03-21T16:02:45;19.40;48.30
34640;DHT22;22600;48.186;11.526;2023-03-21T16:07:44;22.80;50.00
34640;DHT22;22600;48.186;11.526;2023-03-21T16:10:16;22.80;50.10
34640;DHT22;22600;48.186;11.526;2023-03-21T16:12:47;22.80;50.10
34640;DHT22;22600;48.186;11.526;2023-03-21T16:15:13;22.80;50.10
34640;DHT22;22600;48.186;11.526;2023-03-21T16:17:38;22.80;50.10
34640;DHT22;22600;48.186;11.526;2023-03-21T16:20:11;22.80;50.10
34640;DHT22;22600;48.186;11.526;2023-03-21T16:22:40;22.80;50.20
34640;DHT22;22600;48.186;11.526;2023-03-21T16:25:06;19.30;48.50
34640;DHT22;22600;48.186;11.526;2023-03-21T16:27:32;22.80;50.20
34640;DHT22;22600;48.186;11.526;2023-03-21T16:29:57;22.80;50.30
34640;DHT22;22600;48.186;11.526;2023-03-21T16:32:22;22.70;50.20
34640;DHT22;22600;48.186;11.526;2023-03-21T16:34:48;22.80;50.30
34640;DHT22;22600;48.186;11.526;2023-03-21T16:37:13;22.70;50.30
34640;DHT22;22600;48.186;11.526;2023-03-21T16:39:40;22.80;50.30
34640;DHT22;22600;48.186;11.526;2023-03-21T16:42:05;22.80;50.30
34640;DHT22;22600;48.186;11.526;2023-03-21T16:44:31;22.80;50.40
34640;DHT22;22600;48.186;11.526;2023-03-21T16:46:58;22.80;50.40
34640;DHT22;22600;48.186;11.526;2023-03-21T16:49:24;26.50;52.40
34640;DHT22;22600;48.186;11.526;2023-03-21T16:51:51;22.80;50.40